Time;durP1;ratioP1;P1;durP2;ratioP2;P2;SDS_P1;SDS_P2;PMS_P1;PMS_P2;Temp;Humidity;BMP_temperature;BMP_pressure;BME280_temperature;BME280_humidity;BME280_pressure;Samples;Min_cycle;Max_cycle;Signal;HPM_P1;HPM_P2
2022/08/10 00:01:12;;;;;;;3.37;1.60;;;21.40;48.40;;;;;;5076680;28;20648;-80
2022/08/10 00:03:39;;;;;;;4.43;1.57;;;21.40;48.80;;;;;;5080707;28;20631;-80
2022/08/10 00:06:06;;;;;;;2.03;1.77;;;21.40;48.90;;;;;;5089134;28;20629;-80
2022/08/10 00:08:33;;;;;;;1.80;1.70;;;21.40;49.00;;;;;;5078687;28;20640;-80
2022/08/10 00:10:59;;;;;;;1.50;1.40;;;21.40;49.00;;;;;;5079646;28;20681;-80
2022/08/10 00:13:27;;;;;;;2.13;1.63;;;21.40;49.10;;;;;;5087721;28;20725;-80
2022/08/10 00:15:54;;;;;;;1.83;1.73;;;21.40;49.30;;;;;;5081221;28;21458;-80
2022/08/10 00:18:22;;;;;;;1.97;1.50;;;21.40;49.50;;;;;;5097189;28;20627;-80
2022/08/10 00:20:49;;;;;;;2.30;2.03;;;21.30;49.60;;;;;;5089356;28;20742;-81
2022/08/10 00:23:16;;;;;;;1.77;1.50;;;21.30;49.90;;;;;;5087340;28;20637;-81
2022/08/10 00:25:43;;;;;;;2.97;1.80;;;21.30;49.90;;;;;;5089641;28;20633;-80
2022/08/10 00:28:12;;;;;;;2.07;1.60;;;21.10;50.30;;;;;;5091499;28;20632;-80
2022/08/10 00:30:39;;;;;;;1.97;1.63;;;21.10;50.60;;;;;;5085145;28;20752;-79
2022/08/10 00:33:06;;;;;;;2.00;1.90;;;21.10;50.60;;;;;;5086978;28;20636;-78
2022/08/10 00:35:34;;;;;;;3.43;1.67;;;21.10;50.80;;;;;;5092111;28;20671;-79
2022/08/10 00:38:01;;;;;;;2.23;2.03;;;21.10;51.00;;;;;;5084906;28;21232;-80
2022/08/10 00:40:28;;;;;;;1.70;1.60;;;21.10;51.20;;;;;;5083893;28;20986;-79
2022/08/10 00:42:55;;;;;;;2.27;1.60;;;21.00;51.40;;;;;;5084297;28;20998;-79
2022/08/10 00:45:22;;;;;;;1.70;1.60;;;21.00;51.70;;;;;;5083024;28;20626;-80
2022/08/10 00:47:48;;;;;;;4.43;1.50;;;21.00;51.80;;;;;;5087694;28;20632;-80
2022/08/10 00:50:16;;;;;;;1.47;1.30;;;21.00;52.20;;;;;;5084641;28;21252;-80
2022/08/10 00:52:45;;;;;;;2.13;1.60;;;21.00;52.20;;;;;;5085071;28;21492;-79
2022/08/10 00:55:12;;;;;;;1.60;1.50;;;21.00;52.40;;;;;;5089824;28;20629;-79
2022/08/10 00:57:40;;;;;;;2.00;1.63;;;21.00;52.40;;;;;;5086738;28;20620;-80
2022/08/10 01:00:08;;;;;;;2.50;1.50;;;21.00;52.60;;;;;;5091948;28;20629;-80
2022/08/10 01:02:36;;;;;;;1.73;1.60;;;20.90;52.60;;;;;;5082079;28;20630;-79
2022/08/10 01:05:06;;;;;;;2.40;1.90;;;21.00;53.00;;;;;;5083806;28;20636;-79
2022/08/10 01:07:53;;;;;;;2.23;1.20;;;20.90;53.10;;;;;;5089498;28;20623;-79
2022/08/10 01:10:32;;;;;;;2.17;1.83;;;20.90;53.50;;;;;;5090163;28;21013;-80
2022/08/10 01:13:06;;;;;;;2.10;1.40;;;20.90;53.60;;;;;;5086728;28;20638;-80
2022/08/10 01:15:40;;;;;;;2.23;1.40;;;20.80;53.80;;;;;;5088529;28;20647;-79
2022/08/10 01:18:12;;;;;;;1.67;1.57;;;20.80;54.10;;;;;;5087869;28;20720;-79
2022/08/10 01:20:52;;;;;;;2.80;1.80;;;20.80;54.40;;;;;;5083964;28;20682;-79
2022/08/10 01:23:41;;;;;;;2.50;1.63;;;20.70;54.70;;;;;;5084878;28;20622;-79
2022/08/10 01:26:34;;;;;;;1.90;1.80;;;20.70;55.00;;;;;;5084659;28;20705;-80
2022/08/10 01:29:16;;;;;;;1.67;1.57;;;20.70;55.20;;;;;;5089405;28;20650;-80
2022/08/10 01:31:49;;;;;;;8.07;2.00;;;20.60;55.40;;;;;;5081297;28;20648;-79
2022/08/10 01:34:20;;;;;;;2.10;2.00;;;20.60;55.70;;;;;;5083736;28;20624;-80
2022/08/10 01:36:51;;;;;;;1.93;1.80;;;20.50;55.90;;;;;;5081563;28;20621;-80
2022/08/10 01:39:23;;;;;;;1.80;1.70;;;20.50;56.30;;;;;;5089038;28;20620;-79
2022/08/10 01:41:54;;;;;;;3.03;1.73;;;20.50;56.50;;;;;;5082864;28;20655;-79
2022/08/10 01:44:29;;;;;;;2.93;1.93;;;20.50;57.00;;;;;;5090692;28;20611;-79
2022/08/10 01:49:44;;;;;;;4.10;2.10;;;20.50;57.40;;;;;;5075212;28;20657;-79
2022/08/10 01:52:11;;;;;;;3.00;1.80;;;20.50;57.90;;;;;;5087152;28;20679;-79
2022/08/10 01:54:41;;;;;;;2.30;1.77;;;20.40;58.00;;;;;;5090690;28;20631;-79
2022/08/10 01:57:09;;;;;;;2.07;1.90;;;20.40;58.10;;;;;;5091900;28;20625;-79
2022/08/10 01:59:39;;;;;;;1.30;1.20;;;20.40;58.50;;;;;;5083591;28;20717;-79
2022/08/10 02:02:10;;;;;;;3.97;2.13;;;20.40;58.70;;;;;;5084727;28;20775;-79
2022/08/10 02:04:40;;;;;;;1.90;1.50;;;20.40;58.80;;;;;;5085527;28;20630;-80
2022/08/10 02:07:09;;;;;;;1.60;1.50;;;20.40;59.10;;;;;;5082621;28;20989;-81
2022/08/10 02:09:39;;;;;;;3.27;1.97;;;20.40;59.60;;;;;;5082938;28;20620;-78
2022/08/10 02:12:08;;;;;;;2.37;1.77;;;20.30;59.70;;;;;;5081660;28;20648;-81
2022/08/10 02:14:40;;;;;;;1.70;1.60;;;20.30;59.90;;;;;;5086347;28;21182;-78
2022/08/10 02:17:13;;;;;;;3.13;1.93;;;20.30;60.30;;;;;;5079415;28;20643;-78
2022/08/10 02:19:42;;;;;;;1.63;1.53;;;20.30;60.70;;;;;;5076947;28;20663;-78
2022/08/10 02:22:10;;;;;;;1.57;1.47;;;20.20;60.70;;;;;;5081560;28;20655;-79
2022/08/10 02:24:40;;;;;;;2.13;1.60;;;20.10;61.30;;;;;;5084837;28;21205;-79
2022/08/10 02:27:08;;;;;;;6.83;1.73;;;20.10;61.60;;;;;;5093979;28;20632;-79
2022/08/10 02:29:36;;;;;;;1.70;1.30;;;20.10;62.20;;;;;;5085115;28;20631;-79
2022/08/10 02:32:06;;;;;;;3.10;1.60;;;20.10;62.30;;;;;;5091890;28;20747;-79
2022/08/10 02:34:37;;;;;;;2.70;1.90;;;20.10;63.30;;;;;;5079943;28;20615;-79
2022/08/10 02:37:05;;;;;;;5.30;1.90;;;20.00;63.60;;;;;;5077031;28;20639;-79
2022/08/10 02:39:34;;;;;;;1.60;1.47;;;20.00;64.20;;;;;;5081268;28;20623;-79
2022/08/10 02:42:05;;;;;;;4.00;1.63;;;20.00;64.70;;;;;;5090452;28;20655;-79
2022/08/10 02:44:38;;;;;;;2.40;1.90;;;20.00;65.00;;;;;;5086564;28;20695;-79
2022/08/10 02:47:10;;;;;;;2.20;1.70;;;19.90;65.90;;;;;;5076788;28;20621;-79
2022/08/10 02:49:42;;;;;;;2.17;2.03;;;19.90;66.10;;;;;;5074692;28;20617;-78
2022/08/10 02:52:16;;;;;;;2.20;2.00;;;19.80;67.30;;;;;;5088064;28;21341;-79
2022/08/10 02:54:50;;;;;;;1.87;1.77;;;19.70;67.60;;;;;;5081475;28;20632;-79
2022/08/10 02:57:20;;;;;;;2.13;1.73;;;19.70;68.50;;;;;;5081584;28;20620;-79
2022/08/10 02:59:52;;;;;;;3.00;1.70;;;19.60;69.00;;;;;;5087472;28;20636;-79
2022/08/10 03:02:26;;;;;;;2.10;1.77;;;19.60;69.60;;;;;;5087716;28;21104;-78
2022/08/10 03:05:00;;;;;;;3.10;1.80;;;19.60;69.70;;;;;;5082123;28;20632;-79
2022/08/10 03:07:32;;;;;;;2.13;2.03;;;19.50;70.50;;;;;;5089040;28;20984;-79
2022/08/10 03:10:00;;;;;;;5.30;2.00;;;19.60;71.10;;;;;;5089900;28;20750;-78
2022/08/10 03:12:29;;;;;;;3.90;1.97;;;19.50;71.80;;;;;;5090688;28;20648;-79
2022/08/10 03:14:58;;;;;;;2.20;1.90;;;19.40;72.60;;;;;;5087727;28;21198;-79
2022/08/10 03:17:26;;;;;;;2.97;2.00;;;19.40;73.00;;;;;;5084472;28;20640;-79
2022/08/10 03:19:57;;;;;;;1.60;1.50;;;19.30;73.60;;;;;;5082097;28;20628;-79
2022/08/10 03:22:26;;;;;;;1.60;1.50;;;19.30;74.00;;;;;;5094007;28;21000;-79
2022/08/10 03:24:54;;;;;;;4.90;2.03;;;19.30;74.50;;;;;;5078051;28;20725;-79
2022/08/10 03:27:22;;;;;;;2.30;1.70;;;19.20;75.20;;;;;;5076871;28;20620;-78
2022/08/10 03:29:50;;;;;;;3.07;2.00;;;19.20;75.70;;;;;;5085817;28;20651;-79
2022/08/10 03:32:19;;;;;;;4.73;2.30;;;19.20;76.10;;;;;;5090119;28;20642;-79
2022/08/10 03:34:46;;;;;;;5.80;2.07;;;19.20;77.10;;;;;;5089919;28;21204;-79
2022/08/10 03:37:14;;;;;;;1.67;1.57;;;19.10;77.30;;;;;;5094832;28;20624;-79
2022/08/10 03:39:41;;;;;;;2.73;1.93;;;19.10;77.70;;;;;;5095833;28;20634;-79
2022/08/10 03:42:11;;;;;;;2.17;1.57;;;19.10;78.20;;;;;;5090673;28;21161;-79
2022/08/10 03:44:40;;;;;;;4.67;2.23;;;19.10;78.50;;;;;;5082999;28;21142;-79
2022/08/10 03:47:08;;;;;;;4.70;2.03;;;19.00;78.90;;;;;;5090371;28;21239;-79
2022/08/10 03:49:37;;;;;;;3.77;1.70;;;19.00;79.50;;;;;;5087632;28;20628;-79
2022/08/10 03:52:06;;;;;;;2.90;2.20;;;18.90;80.10;;;;;;5092972;28;20758;-81
2022/08/10 03:54:34;;;;;;;1.90;1.73;;;18.90;80.90;;;;;;5090228;28;20668;-79
2022/08/10 03:57:02;;;;;;;3.90;2.07;;;18.90;81.00;;;;;;5078840;28;20644;-78
2022/08/10 03:59:30;;;;;;;1.80;1.70;;;18.90;81.90;;;;;;5072775;28;20662;-79
2022/08/10 04:01:57;;;;;;;1.97;1.80;;;18.80;82.80;;;;;;5069444;28;20657;-79
2022/08/10 04:04:25;;;;;;;1.87;1.77;;;18.80;84.10;;;;;;5093939;28;20627;-79
2022/08/10 04:06:52;;;;;;;3.20;2.30;;;18.70;84.90;;;;;;5082514;28;20643;-78
2022/08/10 04:09:19;;;;;;;1.90;1.67;;;18.70;86.20;;;;;;5091904;28;20627;-79
2022/08/10 04:11:47;;;;;;;2.57;2.00;;;18.70;85.70;;;;;;5083634;28;20763;-79
2022/08/10 04:14:14;;;;;;;3.33;2.37;;;18.60;86.90;;;;;;5087731;28;21059;-79
2022/08/10 04:16:41;;;;;;;2.63;1.80;;;18.60;88.60;;;;;;5089153;28;21002;-79
2022/08/10 04:19:08;;;;;;;2.20;1.73;;;18.50;88.60;;;;;;5088031;28;20720;-79
2022/08/10 04:21:38;;;;;;;7.97;2.60;;;18.50;89.60;;;;;;5087057;28;20739;-79
2022/08/10 04:24:09;;;;;;;2.53;1.60;;;18.40;90.00;;;;;;5081832;28;20655;-79
2022/08/10 04:26:36;;;;;;;2.13;1.93;;;18.50;89.40;;;;;;5083243;28;20632;-80
2022/08/10 04:29:05;;;;;;;2.90;2.00;;;18.40;90.00;;;;;;5076536;28;20656;-80
2022/08/10 04:31:34;;;;;;;2.30;2.10;;;18.40;90.40;;;;;;5071051;28;20679;-80
2022/08/10 04:34:02;;;;;;;2.70;2.03;;;18.40;90.90;;;;;;5078777;28;20759;-80
2022/08/10 04:36:30;;;;;;;2.10;2.00;;;18.40;91.10;;;;;;5082087;28;20622;-80
2022/08/10 04:38:57;;;;;;;4.00;2.07;;;18.30;91.30;;;;;;5084980;28;20632;-80
2022/08/10 04:41:25;;;;;;;2.87;1.87;;;18.30;91.60;;;;;;5086744;28;20748;-79
2022/08/10 04:43:52;;;;;;;3.00;1.60;;;18.30;92.40;;;;;;5083984;28;20635;-79
2022/08/10 04:46:20;;;;;;;3.17;1.80;;;18.20;92.30;;;;;;5079080;28;20638;-79
2022/08/10 04:48:47;;;;;;;2.27;1.60;;;18.20;92.50;;;;;;5089881;28;20624;-79
2022/08/10 04:51:16;;;;;;;2.10;2.00;;;18.20;92.30;;;;;;5084635;28;20687;-79
2022/08/10 04:53:43;;;;;;;2.07;1.30;;;18.20;92.30;;;;;;5083895;28;20643;-79
2022/08/10 04:56:10;;;;;;;1.70;1.60;;;18.30;92.30;;;;;;5085720;28;21210;-79
2022/08/10 04:58:37;;;;;;;2.53;1.60;;;18.30;91.90;;;;;;5088725;28;20647;-79
2022/08/10 05:01:04;;;;;;;4.97;2.30;;;18.40;91.70;;;;;;5086279;28;20952;-79
2022/08/10 05:03:32;;;;;;;2.10;1.90;;;18.40;91.60;;;;;;5082306;28;20623;-79
2022/08/10 05:05:59;;;;;;;2.10;1.80;;;18.50;91.40;;;;;;5083776;28;20743;-81
2022/08/10 05:08:26;;;;;;;2.07;1.97;;;18.50;91.10;;;;;;5090836;28;20617;-79
2022/08/10 05:10:52;;;;;;;2.30;1.87;;;18.60;91.20;;;;;;5081637;28;20679;-79
2022/08/10 05:13:19;;;;;;;2.37;2.10;;;18.60;91.10;;;;;;5072632;28;21198;-79
2022/08/10 05:15:48;;;;;;;2.20;1.53;;;18.60;90.90;;;;;;5070649;28;20655;-79
2022/08/10 05:18:15;;;;;;;2.63;1.70;;;18.70;90.60;;;;;;5092999;28;20639;-79
2022/08/10 05:20:43;;;;;;;3.40;1.70;;;18.70;90.30;;;;;;5086035;28;20643;-79
2022/08/10 05:23:10;;;;;;;2.43;1.80;;;18.80;90.30;;;;;;5084659;28;20655;-79
2022/08/10 05:25:37;;;;;;;2.47;1.77;;;18.80;90.10;;;;;;5085001;28;20627;-79
2022/08/10 05:28:04;;;;;;;2.20;2.00;;;18.90;90.00;;;;;;5085125;28;20633;-79
2022/08/10 05:30:31;;;;;;;3.10;1.83;;;19.00;90.20;;;;;;5080139;28;21213;-78
2022/08/10 05:32:58;;;;;;;1.83;1.73;;;19.00;90.00;;;;;;5082036;28;20628;-80
2022/08/10 05:35:25;;;;;;;3.20;2.53;;;19.10;89.50;;;;;;5093637;28;20638;-80
2022/08/10 05:37:56;;;;;;;3.53;2.10;;;19.10;89.90;;;;;;5080334;28;21307;-80
2022/08/10 05:40:24;;;;;;;2.07;1.87;;;19.20;89.60;;;;;;5082602;28;20661;-80
2022/08/10 05:42:51;;;;;;;2.60;2.10;;;19.20;88.90;;;;;;5083427;28;20624;-80
2022/08/10 05:45:21;;;;;;;2.37;2.17;;;19.30;88.60;;;;;;5085390;28;20710;-80
2022/08/10 05:47:48;;;;;;;1.80;1.70;;;19.40;88.50;;;;;;5087885;28;20636;-79
2022/08/10 05:50:16;;;;;;;2.13;1.63;;;19.40;87.70;;;;;;5088385;28;21067;-79
2022/08/10 05:52:43;;;;;;;2.23;2.03;;;19.50;86.80;;;;;;5082052;28;21194;-79
2022/08/10 05:55:11;;;;;;;6.00;2.53;;;19.70;87.20;;;;;;5080028;28;21172;-79
2022/08/10 05:57:39;;;;;;;2.27;1.83;;;19.80;87.10;;;;;;5076744;28;21218;-78
2022/08/10 06:00:09;;;;;;;1.83;1.60;;;19.80;86.60;;;;;;5070637;28;20636;-78
2022/08/10 06:02:40;;;;;;;5.47;1.77;;;19.90;85.50;;;;;;5083552;28;20651;-78
2022/08/10 06:05:09;;;;;;;3.10;2.17;;;20.00;84.70;;;;;;5089187;28;20617;-78
2022/08/10 06:07:40;;;;;;;8.30;1.70;;;20.00;84.90;;;;;;5079885;28;21215;-77
2022/08/10 06:10:12;;;;;;;3.67;1.60;;;20.20;84.00;;;;;;5080916;28;21069;-78
2022/08/10 06:12:40;;;;;;;3.50;2.13;;;20.30;83.60;;;;;;5072719;28;20982;-78
2022/08/10 06:15:08;;;;;;;2.13;1.93;;;20.40;83.30;;;;;;5077105;28;21183;-78
2022/08/10 06:17:36;;;;;;;1.80;1.70;;;20.40;82.80;;;;;;5086547;28;20619;-78
2022/08/10 06:20:04;;;;;;;1.47;1.37;;;20.50;82.10;;;;;;5075663;28;20904;-78
2022/08/10 06:22:31;;;;;;;3.43;1.30;;;20.70;81.90;;;;;;5061843;28;20625;-78
2022/08/10 06:25:00;;;;;;;4.67;1.90;;;20.80;81.80;;;;;;5087814;28;20643;-78
2022/08/10 06:27:29;;;;;;;2.40;1.43;;;20.90;81.80;;;;;;5081940;28;20638;-78
2022/08/10 06:29:56;;;;;;;3.73;1.63;;;21.00;81.30;;;;;;5087239;28;21050;-78
2022/08/10 06:32:27;;;;;;;2.10;1.57;;;21.10;81.30;;;;;;5079937;28;20664;-78
2022/08/10 06:34:56;;;;;;;2.80;1.67;;;21.20;81.10;;;;;;5073484;28;20661;-78
2022/08/10 06:37:27;;;;;;;2.00;1.60;;;21.30;80.80;;;;;;5082085;28;20619;-78
2022/08/10 06:39:55;;;;;;;2.07;1.93;;;21.30;80.00;;;;;;5085628;28;20641;-78
2022/08/10 06:42:30;;;;;;;2.10;1.47;;;21.40;80.20;;;;;;5094829;28;20619;-78
2022/08/10 06:45:01;;;;;;;3.40;1.80;;;21.50;79.90;;;;;;5075713;28;20608;-77
2022/08/10 06:47:37;;;;;;;2.57;1.73;;;21.60;79.40;;;;;;5070986;28;20714;-77
2022/08/10 06:50:10;;;;;;;4.53;2.77;;;21.70;79.20;;;;;;5082449;28;20632;-79
2022/08/10 06:52:37;;;;;;;1.60;1.40;;;21.90;78.00;;;;;;5086082;28;20677;-78
2022/08/10 06:55:08;;;;;;;1.83;1.40;;;21.90;78.00;;;;;;5092600;28;20633;-78
2022/08/10 06:57:38;;;;;;;2.10;1.50;;;22.00;77.70;;;;;;5086049;28;20656;-78
2022/08/10 07:00:07;;;;;;;2.97;1.60;;;22.10;75.90;;;;;;5084754;28;20641;-77
2022/08/10 07:02:41;;;;;;;1.73;1.60;;;22.20;76.20;;;;;;5086190;28;20724;-78
2022/08/10 07:05:11;;;;;;;1.97;1.60;;;22.30;76.00;;;;;;5082708;28;20636;-78
2022/08/10 07:07:41;;;;;;;4.50;2.07;;;22.40;76.10;;;;;;5071597;28;20635;-78
2022/08/10 07:10:10;;;;;;;2.33;1.50;;;22.50;75.60;;;;;;5082786;28;20634;-78
2022/08/10 07:12:39;;;;;;;2.20;1.50;;;22.60;75.20;;;;;;5080846;28;20666;-78
2022/08/10 07:15:08;;;;;;;2.13;1.63;;;22.60;74.30;;;;;;5085892;28;20647;-79
2022/08/10 07:17:37;;;;;;;3.73;1.57;;;22.70;73.60;;;;;;5082468;28;20639;-79
2022/08/10 07:20:07;;;;;;;1.43;1.33;;;22.80;74.00;;;;;;5088673;28;20621;-79
2022/08/10 07:22:36;;;;;;;1.67;1.57;;;22.90;74.10;;;;;;5085419;28;20773;-78
2022/08/10 07:25:05;;;;;;;6.17;1.57;;;23.00;73.60;;;;;;5082006;28;20626;-79
2022/08/10 07:27:33;;;;;;;2.10;1.80;;;23.10;72.80;;;;;;5092535;28;20630;-78
2022/08/10 07:30:02;;;;;;;6.70;1.83;;;23.20;72.80;;;;;;5080821;28;20620;-79
2022/08/10 07:32:30;;;;;;;2.00;1.80;;;23.30;72.80;;;;;;5081077;28;20677;-79
2022/08/10 07:34:58;;;;;;;3.80;1.83;;;23.40;72.80;;;;;;5073960;28;20616;-78
2022/08/10 07:37:28;;;;;;;2.13;1.40;;;23.50;72.00;;;;;;5074954;28;20625;-79
2022/08/10 07:39:56;;;;;;;2.03;1.33;;;23.50;70.10;;;;;;5081081;28;20712;-77
2022/08/10 07:42:27;;;;;;;1.77;1.67;;;23.60;70.60;;;;;;5065889;28;20660;-77
2022/08/10 07:44:54;;;;;;;1.70;1.60;;;23.70;70.10;;;;;;5070788;28;21283;-77
2022/08/10 07:47:28;;;;;;;7.80;1.80;;;23.70;69.00;;;;;;5073498;28;20731;-78
2022/08/10 07:49:58;;;;;;;4.57;1.87;;;23.80;69.10;;;;;;5082780;28;20606;-78
2022/08/10 07:52:26;;;;;;;3.30;1.70;;;23.80;68.70;;;;;;5088264;28;20647;-78
2022/08/10 07:54:55;;;;;;;3.10;1.33;;;23.90;68.60;;;;;;5074688;28;20632;-80
2022/08/10 07:57:25;;;;;;;3.40;1.43;;;24.00;69.00;;;;;;5075594;28;20629;-80
2022/08/10 07:59:59;;;;;;;3.93;1.70;;;24.10;68.60;;;;;;5069570;28;20635;-79
2022/08/10 08:02:31;;;;;;;3.37;1.70;;;24.20;68.50;;;;;;5077477;28;20627;-79
2022/08/10 08:05:02;;;;;;;5.60;1.60;;;24.30;66.50;;;;;;5078415;28;20628;-79
2022/08/10 08:07:30;;;;;;;3.00;2.70;;;24.30;66.30;;;;;;5073474;28;21013;-79
2022/08/10 08:09:58;;;;;;;2.83;1.63;;;24.40;67.00;;;;;;5082860;28;20727;-78
2022/08/10 08:12:27;;;;;;;2.73;1.47;;;24.40;67.20;;;;;;5080030;28;20715;-78
2022/08/10 08:14:56;;;;;;;2.90;1.80;;;24.50;66.90;;;;;;5079835;28;20640;-78
2022/08/10 08:17:25;;;;;;;1.70;1.60;;;24.70;66.10;;;;;;5079311;28;20629;-79
2022/08/10 08:19:56;;;;;;;3.83;1.60;;;24.70;65.70;;;;;;5069409;28;20637;-78
2022/08/10 08:22:24;;;;;;;1.47;1.37;;;24.80;65.40;;;;;;5067403;28;21140;-78
2022/08/10 08:24:52;;;;;;;2.63;1.37;;;24.90;64.80;;;;;;5077089;28;21196;-78
2022/08/10 08:27:20;;;;;;;3.00;1.60;;;25.00;64.40;;;;;;5087911;28;20620;-78
2022/08/10 08:29:49;;;;;;;2.07;1.60;;;25.10;64.50;;;;;;5079302;28;20620;-78
2022/08/10 08:32:21;;;;;;;1.73;1.63;;;25.20;64.30;;;;;;5082926;28;20678;-78
2022/08/10 08:34:52;;;;;;;3.77;2.00;;;25.20;62.90;;;;;;5082459;28;20641;-78
2022/08/10 08:37:22;;;;;;;2.70;1.53;;;25.30;63.20;;;;;;5075467;28;20617;-78
2022/08/10 08:39:49;;;;;;;4.70;1.53;;;25.40;63.20;;;;;;5072759;28;21187;-78
2022/08/10 08:42:37;;;;;;;6.67;2.53;;;25.40;63.20;;;;;;5073828;28;20720;-78
2022/08/10 08:45:15;;;;;;;2.37;1.33;;;25.50;61.30;;;;;;5086551;28;20698;-78
2022/08/10 08:48:09;;;;;;;4.47;1.70;;;25.60;60.70;;;;;;5085018;28;20635;-78
2022/08/10 08:50:48;;;;;;;2.87;1.60;;;25.70;60.60;;;;;;5053294;28;20663;-78
2022/08/10 08:53:29;;;;;;;1.93;1.50;;;25.80;60.90;;;;;;5078685;28;20660;-77
2022/08/10 08:56:02;;;;;;;8.93;2.00;;;25.80;59.50;;;;;;5087275;28;20658;-77
2022/08/10 08:59:01;;;;;;;1.97;1.63;;;25.80;58.80;;;;;;5087471;28;20615;-78
2022/08/10 09:01:47;;;;;;;3.00;1.50;;;26.00;59.50;;;;;;5095224;28;20614;-78
2022/08/10 09:04:37;;;;;;;1.60;1.50;;;26.10;58.90;;;;;;5081726;28;20612;-78
2022/08/10 09:07:49;;;;;;;2.60;1.77;;;26.20;58.70;;;;;;5084601;28;20772;-78
2022/08/10 09:10:30;;;;;;;2.90;1.90;;;26.30;57.80;;;;;;5053511;28;21213;-78
2022/08/10 09:13:04;;;;;;;2.57;1.30;;;26.40;57.00;;;;;;5085069;28;21279;-77
2022/08/10 09:15:39;;;;;;;1.57;1.30;;;26.40;53.40;;;;;;5082831;28;20663;-80
2022/08/10 09:18:12;;;;;;;1.53;1.40;;;26.40;53.50;;;;;;5092654;28;20628;-78
2022/08/10 09:20:46;;;;;;;3.43;1.60;;;26.50;54.60;;;;;;5089713;28;21005;-78
2022/08/10 09:23:23;;;;;;;3.90;1.30;;;26.60;53.80;;;;;;5089693;28;20630;-78
2022/08/10 09:25:55;;;;;;;3.27;1.77;;;26.60;53.00;;;;;;5090970;28;20762;-80
2022/08/10 09:28:26;;;;;;;3.50;1.33;;;26.60;53.10;;;;;;5091275;28;20629;-80
2022/08/10 09:31:05;;;;;;;1.50;1.30;;;26.70;52.60;;;;;;5098047;28;21555;-80
2022/08/10 09:33:44;;;;;;;1.70;1.50;;;26.80;52.70;;;;;;5091076;28;20651;-79
2022/08/10 09:36:22;;;;;;;2.40;1.57;;;26.90;51.60;;;;;;5090749;28;20649;-79
2022/08/10 09:38:57;;;;;;;3.10;1.80;;;26.90;51.70;;;;;;5088023;28;20722;-78
2022/08/10 09:41:37;;;;;;;2.40;1.70;;;27.10;50.60;;;;;;5086436;28;21279;-80
2022/08/10 09:44:13;;;;;;;1.67;1.20;;;27.20;50.50;;;;;;5100023;28;20635;-78
2022/08/10 09:46:51;;;;;;;4.50;1.27;;;27.30;50.70;;;;;;5093909;28;20699;-78
2022/08/10 09:49:26;;;;;;;1.57;1.47;;;27.30;50.70;;;;;;5093352;28;20625;-80
2022/08/10 09:51:57;;;;;;;2.03;1.37;;;27.40;49.70;;;;;;5094381;28;20622;-78
2022/08/10 09:54:42;;;;;;;1.63;1.30;;;27.50;49.30;;;;;;5093620;28;20615;-78
2022/08/10 09:57:20;;;;;;;2.40;1.30;;;27.40;48.80;;;;;;5091296;28;20661;-78
2022/08/10 09:59:56;;;;;;;6.50;1.30;;;27.30;49.20;;;;;;5088559;28;20701;-78
2022/08/10 10:02:32;;;;;;;1.90;1.40;;;27.50;50.10;;;;;;5090652;28;20622;-79
2022/08/10 10:05:09;;;;;;;5.90;1.50;;;27.60;49.80;;;;;;5089818;28;21242;-78
2022/08/10 10:07:42;;;;;;;1.30;1.20;;;27.60;48.50;;;;;;5084997;28;20628;-78
2022/08/10 10:10:12;;;;;;;2.23;1.30;;;27.70;48.00;;;;;;5079824;28;21198;-78
2022/08/10 10:12:49;;;;;;;4.13;1.20;;;27.80;47.60;;;;;;5090629;28;20655;-78
2022/08/10 10:15:26;;;;;;;2.93;1.87;;;27.90;47.50;;;;;;5092960;28;20660;-78
2022/08/10 10:18:13;;;;;;;1.30;1.20;;;27.90;47.60;;;;;;5090579;28;20623;-78
2022/08/10 10:20:47;;;;;;;2.23;1.33;;;28.00;47.80;;;;;;5092678;28;20629;-78
2022/08/10 10:23:23;;;;;;;2.17;1.27;;;28.10;47.70;;;;;;5089401;28;20707;-78
2022/08/10 10:25:59;;;;;;;2.80;1.70;;;28.20;47.60;;;;;;5090350;28;20651;-79
2022/08/10 10:28:37;;;;;;;4.70;1.50;;;28.30;47.10;;;;;;5088745;28;20606;-79
2022/08/10 10:31:11;;;;;;;5.70;1.33;;;28.50;45.80;;;;;;5091101;28;20627;-79
2022/08/10 10:33:48;;;;;;;2.17;1.10;;;28.60;46.10;;;;;;5091874;28;20654;-79
2022/08/10 10:36:17;;;;;;;2.40;1.63;;;28.70;46.00;;;;;;5087199;28;20648;-79
2022/08/10 10:38:45;;;;;;;1.50;1.40;;;28.70;46.30;;;;;;5087883;28;20635;-79
2022/08/10 10:41:19;;;;;;;3.10;1.70;;;28.90;46.70;;;;;;5086007;28;20739;-79
2022/08/10 10:44:04;;;;;;;1.70;1.60;;;29.10;45.90;;;;;;5092620;28;20626;-79
2022/08/10 10:46:47;;;;;;;2.23;1.60;;;29.30;45.00;;;;;;5090012;28;20654;-78
2022/08/10 10:49:25;;;;;;;4.83;2.30;;;29.40;43.70;;;;;;5091928;28;20620;-78
2022/08/10 10:52:20;;;;;;;10.50;1.53;;;29.50;43.20;;;;;;5080579;28;21549;-78
2022/08/10 10:54:59;;;;;;;4.40;1.50;;;29.60;42.80;;;;;;5087602;28;20612;-78
2022/08/10 10:57:32;;;;;;;8.73;1.83;;;29.80;42.00;;;;;;5092738;28;20973;-78
2022/08/10 11:00:06;;;;;;;2.70;1.40;;;30.00;42.40;;;;;;5087892;28;20631;-78
2022/08/10 11:02:53;;;;;;;1.63;1.33;;;30.20;42.10;;;;;;5084617;28;20635;-78
2022/08/10 11:05:31;;;;;;;5.33;1.70;;;30.30;41.30;;;;;;5090638;28;20642;-79
2022/08/10 11:08:01;;;;;;;2.40;1.00;;;30.60;41.90;;;;;;5082100;28;20642;-79
2022/08/10 11:10:33;;;;;;;2.43;1.40;;;30.90;41.40;;;;;;5083989;28;20628;-79
2022/08/10 11:13:26;;;;;;;1.43;1.30;;;31.10;39.80;;;;;;5080160;28;20728;-79
2022/08/10 11:16:01;;;;;;;1.90;1.30;;;31.30;40.10;;;;;;5075864;28;20665;-78
2022/08/10 11:18:39;;;;;;;1.73;1.50;;;31.50;40.70;;;;;;5080109;28;20623;-78
2022/08/10 11:21:15;;;;;;;1.60;1.50;;;31.80;40.40;;;;;;5081495;28;20631;-78
2022/08/10 11:23:49;;;;;;;3.83;1.20;;;32.00;39.30;;;;;;5074242;28;20724;-78
2022/08/10 11:26:22;;;;;;;1.70;1.57;;;32.30;39.30;;;;;;5092111;28;20651;-78
2022/08/10 11:28:54;;;;;;;2.13;1.50;;;32.40;38.10;;;;;;5088643;28;20631;-78
2022/08/10 11:31:28;;;;;;;7.83;1.90;;;32.50;38.20;;;;;;5089900;28;20667;-78
2022/08/10 11:34:00;;;;;;;2.47;1.57;;;32.60;38.40;;;;;;5087826;28;21041;-78
2022/08/10 11:36:31;;;;;;;3.73;2.57;;;32.80;38.50;;;;;;5091423;28;21004;-78
2022/08/10 11:39:03;;;;;;;3.10;1.90;;;33.10;37.40;;;;;;5086442;28;20624;-78
2022/08/10 11:41:36;;;;;;;1.87;1.60;;;33.20;37.70;;;;;;5090186;28;20627;-78
2022/08/10 11:44:08;;;;;;;4.40;1.50;;;33.20;36.80;;;;;;5090165;28;20624;-78
2022/08/10 11:46:45;;;;;;;1.97;1.40;;;33.50;37.10;;;;;;5092501;28;20670;-78
2022/08/10 11:49:17;;;;;;;1.83;1.33;;;33.70;35.50;;;;;;5086231;28;20636;-78
2022/08/10 11:51:48;;;;;;;2.90;1.27;;;33.80;35.80;;;;;;5089502;28;20603;-78
2022/08/10 11:54:25;;;;;;;3.57;1.40;;;34.00;35.20;;;;;;5084903;28;20644;-78
2022/08/10 11:56:55;;;;;;;2.20;1.53;;;34.20;35.40;;;;;;5088009;28;20651;-78
2022/08/10 12:02:15;;;;;;;5.03;1.77;;;34.40;35.20;;;;;;5088345;28;20638;-78
2022/08/10 12:04:48;;;;;;;2.17;1.53;;;34.40;34.00;;;;;;5086876;28;20638;-78
2022/08/10 12:07:17;;;;;;;1.97;1.30;;;34.60;35.20;;;;;;5085285;28;20652;-79
2022/08/10 12:09:44;;;;;;;3.30;1.67;;;34.90;34.80;;;;;;5087667;28;20632;-78
2022/08/10 12:12:12;;;;;;;3.87;1.27;;;35.20;34.60;;;;;;5083524;28;20628;-78
2022/08/10 12:14:48;;;;;;;1.93;1.17;;;35.20;32.80;;;;;;5087887;28;21029;-77
2022/08/10 12:17:23;;;;;;;1.30;1.13;;;35.40;31.90;;;;;;5091344;28;20670;-77
2022/08/10 12:20:02;;;;;;;3.27;1.80;;;35.70;32.30;;;;;;5084288;28;20657;-77
2022/08/10 12:22:33;;;;;;;3.20;1.37;;;35.90;31.50;;;;;;5075964;28;21231;-77
2022/08/10 12:25:05;;;;;;;1.60;1.50;;;35.90;31.40;;;;;;5080448;28;20616;-77
2022/08/10 12:27:38;;;;;;;1.87;1.30;;;36.10;32.30;;;;;;5085033;28;20627;-78
2022/08/10 12:30:08;;;;;;;4.10;1.17;;;36.40;31.50;;;;;;5089492;28;20619;-77
2022/08/10 12:32:45;;;;;;;3.70;1.10;;;36.50;31.30;;;;;;5078384;28;20201;-78
2022/08/10 12:35:22;;;;;;;2.23;1.50;;;36.70;30.30;;;;;;5083124;28;20263;-78
2022/08/10 12:38:02;;;;;;;3.63;1.37;;;36.90;30.00;;;;;;5082531;28;20205;-78
2022/08/10 12:40:33;;;;;;;1.70;1.60;;;37.00;30.00;;;;;;5087419;28;20200;-78
2022/08/10 12:43:05;;;;;;;4.10;1.50;;;37.20;29.90;;;;;;5091162;28;20202;-78
2022/08/10 12:45:36;;;;;;;2.47;1.53;;;37.10;30.00;;;;;;5081325;28;20228;-77
2022/08/10 12:48:10;;;;;;;2.13;1.33;;;37.20;29.20;;;;;;5085072;28;21042;-78
2022/08/10 12:50:42;;;;;;;2.55;1.60;;;36.90;30.00;;;;;;5082181;28;20197;-78
2022/08/10 12:53:20;;;;;;;2.00;1.25;;;37.30;29.30;;;;;;5083467;28;20288;-78
2022/08/10 12:55:49;;;;;;;3.38;1.38;;;37.50;29.30;;;;;;5083429;28;20217;-78
2022/08/10 12:58:19;;;;;;;1.55;1.45;;;37.60;29.30;;;;;;5083004;28;20221;-78
2022/08/10 13:00:48;;;;;;;7.68;1.67;;;37.80;29.40;;;;;;5084870;28;20216;-78
2022/08/10 13:03:19;;;;;;;1.75;1.65;;;37.40;28.60;;;;;;5090124;28;20206;-79
2022/08/10 13:05:47;;;;;;;6.35;1.70;;;37.80;28.70;;;;;;5081211;28;20230;-78
2022/08/10 13:11:03;;;;;;;3.17;1.30;;;38.20;27.90;;;;;;5068164;28;20846;-78
2022/08/10 13:13:34;;;;;;;1.50;1.40;;;37.80;27.50;;;;;;5067549;28;20234;-79
2022/08/10 13:16:02;;;;;;;2.20;1.25;;;38.00;27.90;;;;;;5089872;28;20241;-79
2022/08/10 13:18:36;;;;;;;5.35;1.75;;;38.40;28.00;;;;;;5086467;28;20200;-78